Time;durP1;ratioP1;P1;durP2;ratioP2;P2;SDS_P1;SDS_P2;PMS_P1;PMS_P2;Temp;Humidity;BMP_temperature;BMP_pressure;BME280_temperature;BME280_humidity;BME280_pressure;Samples;Min_cycle;Max_cycle;Signal;HPM_P1;HPM_P2
2022/06/07 00:01:25;;;;;;;14.60;7.97;;;;;;;15.17;61.04;101231.88;5229097;27;20909;-49
2022/06/07 00:03:59;;;;;;;15.90;8.38;;;;;;;15.27;60.96;101252.09;5221506;28;20815;-52
2022/06/07 00:06:32;;;;;;;18.73;8.15;;;;;;;15.25;61.27;101246.13;5210026;28;20777;-51
2022/06/07 00:09:05;;;;;;;19.73;9.00;;;;;;;15.13;61.16;101235.84;5219279;28;20771;-49
2022/06/07 00:11:37;;;;;;;20.98;8.48;;;;;;;15.20;61.17;101252.78;5224622;28;20455;-51
2022/06/07 00:14:10;;;;;;;20.25;9.05;;;;;;;15.16;61.32;101251.47;5221381;28;20420;-49
2022/06/07 00:16:43;;;;;;;17.65;8.60;;;;;;;14.88;61.22;101205.81;5228417;28;20428;-50
2022/06/07 00:19:16;;;;;;;15.90;8.88;;;;;;;15.04;61.21;101230.72;5224452;27;20416;-48
2022/06/07 00:21:49;;;;;;;15.02;7.45;;;;;;;14.93;61.39;101203.47;5223155;28;20426;-48
2022/06/07 00:24:22;;;;;;;15.10;8.40;;;;;;;15.00;61.25;101243.53;5225297;28;20443;-52
2022/06/07 00:26:54;;;;;;;18.77;8.20;;;;;;;15.10;61.42;101246.00;5227693;28;20436;-56
2022/06/07 00:29:28;;;;;;;16.30;9.13;;;;;;;15.10;61.50;101246.81;5225777;28;20419;-54
2022/06/07 00:32:01;;;;;;;18.30;8.43;;;;;;;15.10;61.49;101238.84;5226836;28;20955;-53
2022/06/07 00:34:35;;;;;;;16.53;8.73;;;;;;;15.05;61.49;101238.53;5228818;28;20756;-48
2022/06/07 00:37:07;;;;;;;18.00;9.50;;;;;;;15.11;61.48;101234.34;5216343;28;20939;-51
2022/06/07 00:39:40;;;;;;;15.85;9.30;;;;;;;14.27;61.42;101090.22;5223640;28;20422;-53
2022/06/07 00:42:13;;;;;;;14.90;8.05;;;;;;;15.01;61.38;101202.63;5221225;28;20423;-51
2022/06/07 00:44:46;;;;;;;17.23;7.85;;;;;;;15.10;61.32;101220.22;5218375;27;20550;-52
2022/06/07 00:47:23;;;;;;;14.52;8.23;;;;;;;15.18;61.38;101230.03;5225976;27;20461;-51
2022/06/07 00:50:00;;;;;;;18.08;8.05;;;;;;;15.13;61.50;101211.91;5223988;28;20404;-49
2022/06/07 00:52:36;;;;;;;19.65;9.27;;;;;;;15.15;61.46;101215.22;5227775;28;20907;-49
2022/06/07 00:55:10;;;;;;;19.48;10.30;;;;;;;15.10;61.46;101211.41;5220578;28;20851;-49
2022/06/07 00:57:43;;;;;;;17.15;9.15;;;;;;;15.14;61.58;101216.25;5224008;27;20481;-49
2022/06/07 01:00:22;;;;;;;15.48;9.40;;;;;;;15.21;61.55;101221.72;5225351;27;21051;-48
2022/06/07 01:02:55;;;;;;;20.20;9.60;;;;;;;15.18;61.50;101224.72;5224906;28;20813;-49
2022/06/07 01:05:31;;;;;;;17.90;10.73;;;;;;;15.19;61.54;101210.41;5219869;27;20436;-53
2022/06/07 01:10:55;;;;;;;16.80;10.67;;;;;;;15.27;61.55;101222.81;5222031;28;20400;-50
2022/06/07 01:13:32;;;;;;;21.00;11.95;;;;;;;15.25;61.48;101206.22;5221458;28;20456;-49
2022/06/07 01:16:08;;;;;;;19.60;12.13;;;;;;;15.26;61.42;101208.69;5224546;28;20419;-48
2022/06/07 01:18:41;;;;;;;18.35;11.88;;;;;;;15.33;61.47;101209.69;5221600;28;20872;-55
2022/06/07 01:21:19;;;;;;;18.73;11.98;;;;;;;15.12;61.68;101175.66;5220763;27;20772;-56
2022/06/07 01:23:52;;;;;;;20.25;12.85;;;;;;;15.34;61.56;101205.19;5224027;27;20926;-58
2022/06/07 01:26:25;;;;;;;19.13;12.25;;;;;;;15.27;61.51;101193.56;5224743;27;20430;-50
2022/06/07 01:28:57;;;;;;;15.65;10.85;;;;;;;15.34;61.60;101205.19;5215873;27;20983;-51
2022/06/07 01:31:30;;;;;;;22.00;11.63;;;;;;;15.33;61.56;101206.19;5226313;27;20426;-49
2022/06/07 01:34:04;;;;;;;19.45;12.32;;;;;;;15.34;61.66;101215.84;5226225;28;20496;-50
2022/06/07 01:36:38;;;;;;;18.67;11.23;;;;;;;15.39;61.59;101210.81;5225153;28;20420;-51
2022/06/07 01:42:03;;;;;;;18.63;11.00;;;;;;;15.18;61.43;101168.84;5216626;27;20477;-50
2022/06/07 01:44:40;;;;;;;15.50;10.20;;;;;;;15.42;61.40;101194.50;5221781;27;20796;-49
2022/06/07 01:47:17;;;;;;;13.52;10.15;;;;;;;14.79;61.37;101096.97;5224486;27;20421;-50
2022/06/07 01:49:50;;;;;;;18.42;11.10;;;;;;;15.45;61.51;101203.00;5224395;27;20400;-51
2022/06/07 01:52:27;;;;;;;17.75;11.32;;;;;;;15.43;61.50;101193.53;5221202;28;20557;-51
2022/06/07 01:55:00;;;;;;;19.67;11.40;;;;;;;15.35;61.45;101183.72;5222073;27;20433;-51
2022/06/07 01:57:32;;;;;;;22.23;10.88;;;;;;;15.34;61.42;101173.25;5220690;27;20910;-51
2022/06/07 02:00:07;;;;;;;15.85;10.43;;;;;;;15.47;61.38;101194.00;5224473;28;20503;-49
2022/06/07 02:02:39;;;;;;;23.13;11.40;;;;;;;15.50;61.42;101188.31;5242157;28;20427;-55
2022/06/07 02:05:11;;;;;;;16.90;10.48;;;;;;;15.46;61.42;101193.16;5224433;27;20813;-54
2022/06/07 02:07:45;;;;;;;16.42;11.40;;;;;;;15.41;61.41;101191.00;5224421;27;20712;-49
2022/06/07 02:10:17;;;;;;;17.77;10.67;;;;;;;15.45;61.47;101196.81;5217887;27;20430;-50
2022/06/07 02:12:50;;;;;;;14.93;10.63;;;;;;;15.44;61.46;101184.53;5223539;28;20443;-45
2022/06/07 02:15:23;;;;;;;16.80;10.35;;;;;;;15.43;61.47;101193.53;5222025;28;20416;-51
2022/06/07 02:17:56;;;;;;;21.90;10.98;;;;;;;15.41;61.54;101192.84;5221985;28;20455;-50
2022/06/07 02:20:28;;;;;;;15.88;10.68;;;;;;;15.38;61.47;101179.88;5221921;27;20844;-52
2022/06/07 02:23:03;;;;;;;17.02;10.68;;;;;;;15.42;61.49;101190.03;5223711;28;20507;-53
2022/06/07 02:25:42;;;;;;;17.85;10.55;;;;;;;15.42;61.43;101189.19;5225470;27;20424;-54
2022/06/07 02:28:16;;;;;;;18.77;11.20;;;;;;;15.40;61.40;101183.22;5229386;28;20875;-51
2022/06/07 02:30:49;;;;;;;19.23;10.70;;;;;;;15.36;61.22;101160.59;5225092;28;20427;-50
2022/06/07 02:33:23;;;;;;;14.55;10.77;;;;;;;15.37;61.44;101167.59;5224058;27;20408;-51
2022/06/07 02:36:23;;;;;;;18.25;10.98;;;;;;;15.37;61.17;101183.56;5224680;28;20441;-54
2022/06/07 02:38:57;;;;;;;19.95;11.25;;;;;;;15.28;61.26;101165.97;5223447;28;20411;-51
2022/06/07 02:41:31;;;;;;;14.45;11.52;;;;;;;15.31;61.26;101173.59;5227919;28;20456;-50
2022/06/07 02:44:03;;;;;;;21.27;12.07;;;;;;;15.20;61.16;101172.97;5223463;27;20443;-55
2022/06/07 02:46:36;;;;;;;18.55;11.15;;;;;;;15.32;61.27;101176.09;5230807;28;20490;-51
2022/06/07 02:49:08;;;;;;;17.45;10.93;;;;;;;15.27;61.32;101178.44;5226170;28;20413;-51
2022/06/07 02:51:41;;;;;;;17.13;10.52;;;;;;;15.27;61.22;101169.63;5225402;27;20419;-48
2022/06/07 02:54:15;;;;;;;21.08;10.63;;;;;;;15.07;61.24;101145.25;5230595;28;20428;-48
2022/06/07 02:56:47;;;;;;;21.15;10.55;;;;;;;15.22;61.06;101159.50;5227774;28;20603;-49
2022/06/07 02:59:20;;;;;;;17.98;10.20;;;;;;;15.20;60.96;101175.63;5230373;28;20414;-49
2022/06/07 03:01:52;;;;;;;15.43;10.38;;;;;;;15.20;61.14;101151.69;5226475;27;20404;-48
2022/06/07 03:04:25;;;;;;;18.05;9.65;;;;;;;15.29;61.17;101168.44;5225554;27;20510;-47
2022/06/07 03:06:57;;;;;;;19.27;10.20;;;;;;;15.30;61.07;101169.25;5228591;28;20427;-51
2022/06/07 03:09:33;;;;;;;14.15;9.70;;;;;;;15.17;61.05;101146.72;5230163;28;20418;-48
2022/06/07 03:12:06;;;;;;;15.55;9.95;;;;;;;15.27;61.15;101156.31;5228620;27;20483;-50
2022/06/07 03:14:39;;;;;;;17.33;10.17;;;;;;;15.28;61.08;101155.31;5226377;28;20951;-49
2022/06/07 03:17:11;;;;;;;18.45;9.75;;;;;;;15.35;61.10;101169.59;5224657;28;20399;-51
2022/06/07 03:19:44;;;;;;;16.15;9.88;;;;;;;15.35;61.09;101172.25;5218246;28;20429;-52
2022/06/07 03:22:16;;;;;;;19.52;10.13;;;;;;;15.37;61.11;101162.28;5223968;28;20832;-51
2022/06/07 03:24:50;;;;;;;17.38;10.68;;;;;;;15.37;61.00;101164.94;5221386;28;20411;-53
2022/06/07 03:27:23;;;;;;;14.55;10.93;;;;;;;15.37;61.03;101162.28;5221141;28;20504;-52
2022/06/07 03:29:55;;;;;;;16.15;9.60;;;;;;;15.36;60.97;101160.59;5224256;28;20481;-55
2022/06/07 03:32:27;;;;;;;17.10;10.50;;;;;;;15.40;60.95;101161.94;5225333;27;20496;-50
2022/06/07 03:35:00;;;;;;;18.70;9.93;;;;;;;15.36;60.91;101157.94;5228684;27;20526;-50
2022/06/07 03:37:32;;;;;;;17.98;9.77;;;;;;;15.38;60.98;101170.06;5227946;28;20953;-49
2022/06/07 03:40:09;;;;;;;18.13;9.25;;;;;;;15.39;60.91;101166.44;5221866;28;21119;-49
2022/06/07 03:42:42;;;;;;;15.90;9.73;;;;;;;15.41;60.84;101174.22;5223604;27;20432;-50
2022/06/07 03:45:14;;;;;;;18.52;10.35;;;;;;;15.37;60.87;101167.59;5226138;28;20415;-49
2022/06/07 03:47:54;;;;;;;18.63;10.55;;;;;;;15.26;60.92;101144.00;5220871;27;20879;-52
2022/06/07 03:50:26;;;;;;;18.58;9.65;;;;;;;15.40;60.90;101172.56;5224274;28;20821;-50
2022/06/07 03:53:00;;;;;;;19.58;9.82;;;;;;;15.39;60.84;101171.75;5226076;27;20435;-49
2022/06/07 03:55:35;;;;;;;21.15;10.82;;;;;;;15.33;60.88;101166.25;5227912;27;20430;-52
2022/06/07 03:58:10;;;;;;;12.93;9.00;;;;;;;15.38;60.83;101163.91;5229894;27;20427;-54
2022/06/07 04:00:44;;;;;;;18.23;10.10;;;;;;;15.33;60.69;101168.91;5225360;27;20455;-49
2022/06/07 04:03:17;;;;;;;16.70;10.15;;;;;;;15.46;60.85;101185.19;5227889;28;20408;-52
2022/06/07 04:05:49;;;;;;;18.83;10.95;;;;;;;15.46;60.79;101179.88;5226800;28;20427;-51
2022/06/07 04:08:21;;;;;;;17.23;10.35;;;;;;;15.50;60.68;101185.66;5223908;28;20899;-52
2022/06/07 04:10:58;;;;;;;17.65;10.43;;;;;;;15.51;60.69;101187.31;5232560;27;20810;-54
2022/06/07 04:13:32;;;;;;;14.80;9.03;;;;;;;15.52;60.47;101192.47;5228500;27;20416;-54
2022/06/07 04:16:10;;;;;;;21.42;9.70;;;;;;;15.57;60.53;101190.09;5227451;28;20440;-52
2022/06/07 04:18:43;;;;;;;13.70;9.53;;;;;;;15.60;60.49;101187.09;5228121;27;20898;-49
2022/06/07 04:21:17;;;;;;;18.98;9.77;;;;;;;15.62;60.47;101185.09;5228235;27;20407;-50
2022/06/07 04:23:50;;;;;;;20.80;10.57;;;;;;;15.65;60.29;101187.41;5227346;27;20431;-50
2022/06/07 04:26:27;;;;;;;24.10;9.67;;;;;;;15.65;60.36;101191.91;5226743;27;20408;-49
2022/06/07 04:28:59;;;;;;;15.80;10.10;;;;;;;15.64;60.42;101188.44;5228747;27;20565;-51
2022/06/07 04:32:07;;;;;;;16.80;10.32;;;;;;;15.65;60.54;101192.75;5224906;27;20420;-53
2022/06/07 04:34:39;;;;;;;19.10;10.15;;;;;;;15.63;60.33;101197.41;5229429;27;20962;-49
2022/06/07 04:37:11;;;;;;;22.48;11.32;;;;;;;15.70;60.38;101191.41;5228704;27;20404;-51
2022/06/07 04:39:44;;;;;;;14.85;10.30;;;;;;;15.75;60.31;101194.38;5232401;27;20431;-50
2022/06/07 04:42:17;;;;;;;19.70;10.25;;;;;;;15.66;60.53;101177.59;5221963;27;20444;-50
2022/06/07 04:44:51;;;;;;;18.42;11.10;;;;;;;15.78;60.19;101196.69;5226218;27;20408;-49
2022/06/07 04:47:24;;;;;;;17.13;10.10;;;;;;;15.80;60.18;101198.19;5221759;28;20431;-51
2022/06/07 04:49:56;;;;;;;23.85;10.00;;;;;;;15.85;60.03;101203.81;5230058;27;20884;-47
2022/06/07 04:52:28;;;;;;;18.80;10.73;;;;;;;15.88;60.10;101197.31;5229535;27;20520;-48
2022/06/07 04:55:01;;;;;;;17.15;10.63;;;;;;;15.98;60.05;101208.59;5230128;27;20411;-50
2022/06/07 04:57:35;;;;;;;19.60;11.43;;;;;;;16.04;59.99;101199.03;5217224;27;20416;-50
2022/06/07 05:00:13;;;;;;;21.77;11.05;;;;;;;16.14;59.81;101205.81;5228759;27;20953;-48
2022/06/07 05:02:47;;;;;;;15.48;9.85;;;;;;;16.33;59.76;101199.16;5230055;28;20467;-53
2022/06/07 05:05:21;;;;;;;21.13;9.63;;;;;;;16.56;59.54;101193.78;5233115;28;20475;-51
2022/06/07 05:07:53;;;;;;;20.60;10.85;;;;;;;17.33;58.90;101203.38;5221070;28;20879;-51
2022/06/07 05:10:27;;;;;;;17.45;9.95;;;;;;;18.16;57.95;101170.03;5224781;27;20766;-50
2022/06/07 05:13:01;;;;;;;15.80;8.65;;;;;;;19.42;56.86;101199.53;5229188;27;20800;-51
2022/06/07 05:15:33;;;;;;;13.70;7.57;;;;;;;20.01;56.28;101203.47;5227854;27;20416;-51
2022/06/07 05:18:07;;;;;;;13.75;7.93;;;;;;;19.96;56.07;101198.69;5229155;27;20415;-53
2022/06/07 05:20:39;;;;;;;13.75;8.13;;;;;;;19.79;56.12;101195.59;5227543;27;20469;-51
2022/06/07 05:23:12;;;;;;;14.30;8.35;;;;;;;19.51;56.16;101198.34;5220256;28;20497;-51
2022/06/07 05:25:55;;;;;;;16.03;8.33;;;;;;;19.18;56.31;101197.34;5228043;28;20494;-52
2022/06/07 05:28:29;;;;;;;14.90;8.18;;;;;;;18.97;56.48;101206.28;5225283;27;20508;-53
2022/06/07 05:31:02;;;;;;;21.02;8.77;;;;;;;18.61;56.48;101201.84;5212440;28;20507;-51
2022/06/07 05:33:35;;;;;;;16.08;8.32;;;;;;;18.41;56.42;101210.56;5216788;27;20512;-55
2022/06/07 05:36:08;;;;;;;17.03;8.73;;;;;;;18.23;56.42;101210.19;5228334;27;20806;-55
2022/06/07 05:38:41;;;;;;;16.67;8.75;;;;;;;17.95;56.49;101191.41;5226140;28;20874;-56
2022/06/07 05:41:17;;;;;;;17.35;8.80;;;;;;;17.82;56.46;101196.59;5229702;27;20407;-56
2022/06/07 05:43:51;;;;;;;18.40;8.57;;;;;;;17.75;56.55;101207.19;5229949;28;20419;-54
2022/06/07 05:46:24;;;;;;;17.92;8.38;;;;;;;17.59;56.86;101205.56;5215992;28;20407;-48
2022/06/07 05:48:56;;;;;;;17.83;8.93;;;;;;;17.54;56.52;101210.63;5220332;27;20869;-53
2022/06/07 05:51:29;;;;;;;17.02;9.23;;;;;;;17.54;56.51;101217.81;5245920;27;20498;-50
2022/06/07 05:54:01;;;;;;;14.95;9.20;;;;;;;17.22;56.31;101179.84;5225152;27;20783;-53
2022/06/07 05:56:35;;;;;;;15.38;9.05;;;;;;;17.28;56.52;101198.59;5224966;27;20408;-51
2022/06/07 05:59:09;;;;;;;18.17;9.63;;;;;;;17.38;56.55;101217.00;5224401;27;20415;-54
2022/06/07 06:01:41;;;;;;;19.48;9.02;;;;;;;17.34;56.29;101220.22;5228209;27;20412;-56
2022/06/07 06:04:14;;;;;;;16.58;9.00;;;;;;;17.29;56.52;101218.94;5215158;27;21417;-56
2022/06/07 06:06:46;;;;;;;21.45;9.15;;;;;;;17.29;56.55;101223.44;5226842;27;20414;-53
2022/06/07 06:12:09;;;;;;;16.50;10.02;;;;;;;17.19;56.50;101217.56;5223701;28;20759;-52
2022/06/07 06:14:43;;;;;;;17.02;9.55;;;;;;;17.02;56.66;101204.38;5220887;27;20489;-52
2022/06/07 06:17:16;;;;;;;16.52;9.05;;;;;;;17.10;56.61;101221.34;5232851;28;20498;-54
2022/06/07 06:19:48;;;;;;;17.52;9.35;;;;;;;17.04;56.62;101221.03;5231333;28;20427;-55
2022/06/07 06:22:21;;;;;;;19.52;10.23;;;;;;;17.05;56.60;101227.22;5229535;27;20495;-45
2022/06/07 06:24:54;;;;;;;19.73;9.90;;;;;;;16.86;56.67;101209.88;5232458;28;20422;-55
2022/06/07 06:27:28;;;;;;;19.73;9.57;;;;;;;16.94;56.78;101220.50;5232558;28;20416;-52
2022/06/07 06:30:02;;;;;;;16.92;9.88;;;;;;;16.98;56.48;101221.78;5229116;27;20419;-53
2022/06/07 06:32:35;;;;;;;15.30;9.25;;;;;;;16.93;56.62;101224.16;5233508;28;20491;-54
2022/06/07 06:35:08;;;;;;;18.15;8.98;;;;;;;17.00;56.78;101234.91;5231463;28;20955;-51
2022/06/07 06:37:40;;;;;;;17.77;10.65;;;;;;;17.02;56.89;101232.91;5232917;27;25275;-53
2022/06/07 06:40:13;;;;;;;18.95;10.13;;;;;;;17.08;56.60;101234.03;5232809;27;20439;-53
2022/06/07 06:42:46;;;;;;;16.70;9.50;;;;;;;17.11;56.58;101236.31;5231764;28;20426;-56
2022/06/07 06:45:19;;;;;;;16.45;9.45;;;;;;;16.94;56.74;101212.50;5230904;28;20407;-56
2022/06/07 06:47:53;;;;;;;25.95;9.82;;;;;;;17.03;56.90;101232.75;5224341;28;20492;-55
2022/06/07 06:50:25;;;;;;;18.83;9.80;;;;;;;17.20;56.79;101235.22;5218842;27;20421;-54
2022/06/07 06:52:57;;;;;;;15.65;9.30;;;;;;;17.28;56.63;101227.09;5227044;28;20503;-51
2022/06/07 06:55:30;;;;;;;17.88;9.30;;;;;;;16.96;56.71;101175.75;5224011;28;20438;-55
2022/06/07 06:58:03;;;;;;;17.17;9.80;;;;;;;17.28;56.55;101227.97;5220479;28;20415;-53
2022/06/07 07:00:37;;;;;;;17.05;9.55;;;;;;;17.40;56.64;101236.31;5253628;27;20449;-55
2022/06/07 07:03:09;;;;;;;14.55;9.95;;;;;;;17.40;56.63;101230.16;5236334;27;20991;-54
2022/06/07 07:05:42;;;;;;;15.32;9.45;;;;;;;17.46;56.66;101240.09;5224816;28;20755;-58
2022/06/07 07:08:18;;;;;;;22.17;10.48;;;;;;;17.44;56.59;101252.81;5225970;27;20488;-56
2022/06/07 07:10:51;;;;;;;19.92;9.32;;;;;;;17.39;56.70;101245.34;5220177;28;20416;-47
2022/06/07 07:13:23;;;;;;;17.08;9.27;;;;;;;17.38;56.67;101259.72;5228205;27;20410;-55
2022/06/07 07:15:57;;;;;;;20.13;9.17;;;;;;;17.29;56.63;101247.47;5224717;27;20945;-55
2022/06/07 07:18:30;;;;;;;17.88;9.75;;;;;;;17.39;56.64;101266.72;5224040;27;20412;-53
2022/06/07 07:21:05;;;;;;;18.20;9.48;;;;;;;17.39;56.53;101260.53;5226442;27;20415;-52
2022/06/07 07:23:38;;;;;;;19.65;9.80;;;;;;;17.47;56.34;101244.44;5229264;28;20844;-56
2022/06/07 07:26:16;;;;;;;18.33;10.57;;;;;;;17.58;56.36;101251.13;5228488;28;20510;-54
2022/06/07 07:28:50;;;;;;;14.27;9.10;;;;;;;17.65;56.49;101260.91;5223405;28;20408;-51
2022/06/07 07:31:26;;;;;;;18.73;9.77;;;;;;;17.74;56.30;101265.13;5224472;27;20418;-58
2022/06/07 07:33:59;;;;;;;18.92;9.75;;;;;;;17.83;56.29;101257.03;5214330;28;20536;-53
2022/06/07 07:36:32;;;;;;;18.60;9.07;;;;;;;17.83;55.97;101263.19;5223548;28;20424;-55
2022/06/07 07:39:05;;;;;;;15.77;8.73;;;;;;;17.80;56.21;101263.56;5229248;28;20435;-51
2022/06/07 07:41:40;;;;;;;16.88;9.68;;;;;;;17.85;56.08;101274.53;5227520;28;20462;-54
2022/06/07 07:44:15;;;;;;;16.38;9.52;;;;;;;17.85;56.12;101271.03;5221445;27;20412;-53
2022/06/07 07:46:51;;;;;;;13.20;8.40;;;;;;;17.86;55.95;101265.50;5225212;27;20419;-55
2022/06/07 07:49:24;;;;;;;17.75;8.82;;;;;;;17.56;55.89;101223.78;5222475;27;20423;-50
2022/06/07 07:51:57;;;;;;;15.20;8.48;;;;;;;17.97;55.81;101270.38;5223337;27;20429;-51
2022/06/07 07:54:29;;;;;;;18.33;8.30;;;;;;;18.05;55.74;101265.91;5229829;27;20418;-55
2022/06/07 07:57:02;;;;;;;16.40;8.02;;;;;;;18.14;55.62;101275.47;5223950;27;20447;-53
2022/06/07 07:59:34;;;;;;;21.00;8.70;;;;;;;18.17;55.42;101275.09;5226918;28;20517;-50
2022/06/07 08:02:19;;;;;;;13.98;7.80;;;;;;;18.19;55.53;101267.72;5244680;28;20485;-51
2022/06/07 08:04:52;;;;;;;15.80;7.90;;;;;;;18.32;55.33;101275.06;5223642;27;20508;-55
2022/06/07 08:07:24;;;;;;;13.10;7.05;;;;;;;18.23;55.11;101247.59;5225305;28;20465;-53
2022/06/07 08:09:57;;;;;;;18.40;7.70;;;;;;;18.29;55.24;101260.22;5221351;27;20497;-52
2022/06/07 08:12:29;;;;;;;13.68;6.03;;;;;;;18.38;54.86;101261.75;5227485;28;20531;-55
2022/06/07 08:15:02;;;;;;;11.20;6.57;;;;;;;18.44;54.87;101271.69;5227857;28;20419;-55
2022/06/07 08:17:36;;;;;;;14.10;6.45;;;;;;;18.38;54.77;101260.94;5223317;27;20431;-54
2022/06/07 08:20:10;;;;;;;12.45;6.50;;;;;;;18.53;54.63;101275.06;5215428;28;20419;-55
2022/06/07 08:22:42;;;;;;;13.38;5.95;;;;;;;18.65;54.44;101278.06;5227921;28;20426;-54
2022/06/07 08:25:15;;;;;;;14.23;6.03;;;;;;;18.78;54.25;101282.72;5226923;28;20403;-54
2022/06/07 08:27:48;;;;;;;16.92;6.60;;;;;;;18.89;54.17;101288.38;5225778;28;20431;-52
2022/06/07 08:30:20;;;;;;;13.07;5.88;;;;;;;18.94;53.95;101292.31;5221761;28;20929;-52
2022/06/07 08:32:54;;;;;;;13.35;5.65;;;;;;;19.00;53.93;101291.53;5226024;27;20491;-54
2022/06/07 08:38:16;;;;;;;13.45;5.78;;;;;;;19.02;53.43;101284.97;5219975;28;20423;-56
2022/06/07 08:40:49;;;;;;;11.60;5.37;;;;;;;19.01;53.35;101282.47;5227044;28;20427;-54
2022/06/07 08:43:23;;;;;;;13.52;6.00;;;;;;;19.15;52.93;101289.59;5223397;28;20503;-56
2022/06/07 08:45:57;;;;;;;12.70;5.40;;;;;;;19.19;52.95;101280.16;5220669;28;20418;-56
2022/06/07 08:48:32;;;;;;;11.33;5.87;;;;;;;18.86;52.79;101229.91;5220740;28;20424;-57
2022/06/07 08:51:18;;;;;;;12.85;5.43;;;;;;;19.36;52.61;101296.75;5228770;27;20420;-51
2022/06/07 08:53:53;;;;;;;13.67;6.20;;;;;;;19.45;52.72;101292.03;5223446;28;20464;-52
2022/06/07 08:56:32;;;;;;;14.23;6.82;;;;;;;19.57;52.48;101293.13;5236079;28;20895;-53
2022/06/07 08:59:14;;;;;;;16.33;5.53;;;;;;;19.72;52.16;101280.47;5218455;28;20479;-55
2022/06/07 09:01:56;;;;;;;10.48;4.20;;;;;;;19.83;52.05;101295.16;5229476;28;20468;-52
2022/06/07 09:04:36;;;;;;;11.55;5.45;;;;;;;20.03;51.86;101288.00;5224759;28;20496;-57
2022/06/07 09:07:17;;;;;;;11.32;5.68;;;;;;;20.28;51.38;101287.47;5219439;27;20480;-57
2022/06/07 09:12:58;;;;;;;9.07;4.65;;;;;;;20.80;50.87;101282.41;5235926;28;20783;-55
2022/06/07 09:15:37;;;;;;;8.02;4.63;;;;;;;21.23;50.65;101301.59;5220565;28;20868;-56
2022/06/07 09:18:14;;;;;;;9.18;4.40;;;;;;;21.45;50.15;101290.63;5230431;28;20891;-55
2022/06/07 09:20:53;;;;;;;8.75;3.53;;;;;;;21.77;49.75;101299.59;5221281;27;20878;-57
2022/06/07 09:23:32;;;;;;;11.63;4.73;;;;;;;22.11;49.26;101290.34;5220696;28;20411;-57
2022/06/07 09:26:21;;;;;;;7.85;3.22;;;;;;;22.42;48.67;101292.31;5225531;28;20429;-55
2022/06/07 09:29:09;;;;;;;7.90;4.03;;;;;;;22.69;48.35;101292.91;5222225;28;20420;-49
2022/06/07 09:31:44;;;;;;;10.52;4.07;;;;;;;22.87;48.08;101292.16;5230687;28;20411;-55
2022/06/07 09:34:37;;;;;;;9.30;4.13;;;;;;;22.95;47.79;101286.53;5225954;28;20499;-53
2022/06/07 09:37:19;;;;;;;11.80;4.15;;;;;;;23.13;47.54;101282.19;5213670;28;20417;-57
2022/06/07 09:39:59;;;;;;;10.30;4.20;;;;;;;23.30;47.00;101274.38;5214319;28;20954;-55
2022/06/07 09:42:32;;;;;;;9.00;4.25;;;;;;;23.56;46.61;101275.94;5213841;27;20466;-52
2022/06/07 09:45:21;;;;;;;19.75;5.28;;;;;;;23.77;46.46;101272.81;5227760;27;20854;-54
2022/06/07 09:47:54;;;;;;;6.90;4.40;;;;;;;23.91;46.14;101285.09;5221936;28;21073;-56
2022/06/07 09:50:33;;;;;;;11.68;4.22;;;;;;;23.92;45.87;101273.25;5219798;28;20755;-58
2022/06/07 09:53:16;;;;;;;8.05;4.03;;;;;;;24.12;45.70;101291.84;5219831;28;20457;-57
2022/06/07 09:55:58;;;;;;;11.10;4.70;;;;;;;24.11;45.62;101298.31;5209957;27;20417;-55
2022/06/07 09:59:08;;;;;;;9.00;4.25;;;;;;;24.27;45.14;101288.75;5233973;27;20873;-55
2022/06/07 10:01:46;;;;;;;6.75;3.75;;;;;;;24.31;44.95;101284.56;5225258;28;25646;-57
2022/06/07 10:04:29;;;;;;;9.07;4.60;;;;;;;24.49;44.67;101302.56;5239658;28;20422;-58
2022/06/07 10:07:10;;;;;;;9.85;4.30;;;;;;;24.50;44.68;101308.81;5230408;28;20423;-55
2022/06/07 10:09:59;;;;;;;11.73;4.47;;;;;;;24.41;44.61;101300.19;5234876;28;20515;-59
2022/06/07 10:12:39;;;;;;;10.73;5.10;;;;;;;24.43;44.66;101302.66;5224727;27;20455;-53
2022/06/07 10:15:29;;;;;;;8.20;4.67;;;;;;;24.41;44.46;101294.78;5223437;28;20421;-54
2022/06/07 10:18:15;;;;;;;8.87;4.40;;;;;;;24.52;44.27;101307.50;5229891;27;20413;-58
2022/06/07 10:21:08;;;;;;;12.00;4.90;;;;;;;24.58;44.02;101301.19;5230876;27;20816;-55
2022/06/07 10:24:05;;;;;;;10.43;4.88;;;;;;;24.73;43.58;101292.63;5214345;28;20438;-56
2022/06/07 10:26:55;;;;;;;7.95;4.55;;;;;;;24.82;43.50;101306.63;5216252;28;20424;-55
2022/06/07 10:29:48;;;;;;;11.60;5.10;;;;;;;24.83;43.28;101306.38;5222661;28;20896;-53
2022/06/07 10:32:34;;;;;;;9.55;5.05;;;;;;;24.75;43.39;101312.16;5238615;28;20835;-58
2022/06/07 10:35:18;;;;;;;10.10;5.47;;;;;;;24.76;43.24;101308.38;5227954;28;20463;-51
2022/06/07 10:38:17;;;;;;;11.20;4.55;;;;;;;24.67;43.20;101303.56;5220638;27;20890;-54
2022/06/07 10:41:06;;;;;;;8.55;4.63;;;;;;;24.68;43.22;101295.22;5224860;27;20490;-54
2022/06/07 10:43:53;;;;;;;8.18;4.10;;;;;;;24.73;43.08;101298.03;5220749;28;20416;-53
2022/06/07 10:46:28;;;;;;;8.20;4.50;;;;;;;24.73;42.86;101297.22;5218958;27;20412;-56
2022/06/07 10:49:14;;;;;;;9.57;4.20;;;;;;;24.74;43.03;101299.69;5227328;27;20940;-55
2022/06/07 10:54:59;;;;;;;6.55;4.57;;;;;;;25.03;42.39;101297.97;5216094;28;20421;-52
2022/06/07 10:57:40;;;;;;;10.87;5.00;;;;;;;25.07;42.41;101309.13;5202062;27;20479;-56
2022/06/07 11:00:33;;;;;;;7.53;4.03;;;;;;;25.16;42.06;101302.34;5230270;28;20414;-53
2022/06/07 11:03:26;;;;;;;9.57;4.20;;;;;;;25.14;42.03;101309.03;5222254;28;20415;-54
2022/06/07 11:09:20;;;;;;;9.57;4.43;;;;;;;25.10;41.83;101316.75;5225883;28;20392;-52
2022/06/07 11:11:58;;;;;;;10.35;4.47;;;;;;;25.16;41.68;101301.53;5226300;28;20416;-58
2022/06/07 11:14:50;;;;;;;11.65;4.15;;;;;;;24.79;41.71;101255.78;5229891;28;20420;-55
2022/06/07 11:17:31;;;;;;;6.13;4.15;;;;;;;25.41;41.39;101304.78;5219369;28;20488;-58
2022/06/07 11:20:15;;;;;;;9.70;4.07;;;;;;;25.33;41.45;101304.31;5217975;28;20415;-58
2022/06/07 11:23:03;;;;;;;7.15;3.63;;;;;;;25.45;40.96;101310.53;5216108;28;20516;-56
2022/06/07 11:25:39;;;;;;;6.57;3.08;;;;;;;25.47;40.83;101309.25;5213438;28;20408;-54
2022/06/07 11:28:16;;;;;;;10.90;4.35;;;;;;;25.40;40.57;101295.03;5220469;28;23071;-55
2022/06/07 11:30:53;;;;;;;6.25;3.90;;;;;;;25.33;40.54;101291.63;5219370;28;20881;-54
2022/06/07 11:33:42;;;;;;;8.83;4.33;;;;;;;25.41;40.37;101290.44;5217398;28;20515;-56
2022/06/07 11:36:35;;;;;;;9.15;3.72;;;;;;;25.57;40.13;101305.94;5230108;28;20570;-58
2022/06/07 11:39:32;;;;;;;7.05;3.63;;;;;;;25.53;39.91;101312.88;5215586;28;20429;-55
2022/06/07 11:42:33;;;;;;;10.13;4.35;;;;;;;25.45;40.04;101315.94;5222812;28;20790;-53
2022/06/07 11:45:24;;;;;;;6.97;4.50;;;;;;;25.41;39.88;101293.97;5218213;28;20437;-52
2022/06/07 11:48:18;;;;;;;10.52;4.10;;;;;;;25.40;39.70;101302.31;5217530;28;20411;-51
2022/06/07 11:50:59;;;;;;;8.98;3.80;;;;;;;25.34;39.67;101297.88;5221531;27;20408;-54
2022/06/07 11:53:35;;;;;;;10.02;4.05;;;;;;;25.39;39.26;101304.19;5218005;28;20416;-53
2022/06/07 11:56:36;;;;;;;7.45;3.85;;;;;;;25.40;39.39;101296.91;5225304;28;20488;-53
2022/06/07 11:59:44;;;;;;;6.57;3.15;;;;;;;25.33;39.03;101307.03;5209792;28;20405;-55
2022/06/07 12:02:33;;;;;;;8.40;3.67;;;;;;;25.32;39.00;101317.00;5199866;28;20495;-51
2022/06/07 12:05:32;;;;;;;5.15;2.78;;;;;;;25.33;38.77;101301.63;5222053;28;20875;-56
2022/06/07 12:08:22;;;;;;;7.25;3.08;;;;;;;25.39;38.69;101295.25;5210278;28;20747;-57
2022/06/07 12:11:04;;;;;;;7.75;3.60;;;;;;;25.59;38.05;101303.81;5218408;28;20542;-56
2022/06/07 12:13:52;;;;;;;8.02;4.22;;;;;;;25.61;38.12;101293.59;5213773;28;20429;-55
2022/06/07 12:16:32;;;;;;;7.45;3.72;;;;;;;25.71;37.71;101304.63;5204860;28;20770;-58
2022/06/07 12:19:08;;;;;;;7.55;3.70;;;;;;;25.71;37.63;101299.22;5210388;28;20500;-56
2022/06/07 12:21:47;;;;;;;8.65;3.95;;;;;;;25.80;37.44;101301.50;5218188;28;20479;-56